sensor_id;sensor_type;location;lat;lon;timestamp;P1;durP1;ratioP1;P2;durP2;ratioP2
16524;SDS011;8375;33.594;-117.718;2022-12-07T00:01:36;7.97;;;1.17;;
16524;SDS011;8375;33.594;-117.718;2022-12-07T00:04:06;3.37;;;1.00;;
16524;SDS011;8375;33.594;-117.718;2022-12-07T00:06:36;5.53;;;1.00;;
16524;SDS011;8375;33.594;-117.718;2022-12-07T00:09:06;2.43;;;0.80;;
16524;SDS011;8375;33.594;-117.718;2022-12-07T00:11:37;3.37;;;0.97;;
16524;SDS011;8375;33.594;-117.718;2022-12-07T00:14:08;4.23;;;1.07;;
16524;SDS011;8375;33.594;-117.718;2022-12-07T00:16:39;4.43;;;0.83;;
16524;SDS011;8375;33.594;-117.718;2022-12-07T00:19:09;2.40;;;0.70;;
16524;SDS011;8375;33.594;-117.718;2022-12-07T00:21:39;6.17;;;1.20;;
16524;SDS011;8375;33.594;-117.718;2022-12-07T00:24:09;4.77;;;1.23;;
16524;SDS011;8375;33.594;-117.718;2022-12-07T00:26:39;6.13;;;1.43;;
16524;SDS011;8375;33.594;-117.718;2022-12-07T00:29:11;5.57;;;1.23;;
16524;SDS011;8375;33.594;-117.718;2022-12-07T00:31:42;6.33;;;1.20;;
16524;SDS011;8375;33.594;-117.718;2022-12-07T00:34:13;6.07;;;1.33;;
16524;SDS011;8375;33.594;-117.718;2022-12-07T00:36:42;7.07;;;1.20;;
16524;SDS011;8375;33.594;-117.718;2022-12-07T00:39:11;3.47;;;0.90;;
16524;SDS011;8375;33.594;-117.718;2022-12-07T00:41:40;4.67;;;1.40;;
16524;SDS011;8375;33.594;-117.718;2022-12-07T00:44:11;5.07;;;0.90;;
16524;SDS011;8375;33.594;-117.718;2022-12-07T00:46:40;4.53;;;0.97;;
16524;SDS011;8375;33.594;-117.718;2022-12-07T00:49:08;8.27;;;1.17;;
16524;SDS011;8375;33.594;-117.718;2022-12-07T00:51:37;4.70;;;1.47;;
16524;SDS011;8375;33.594;-117.718;2022-12-07T00:54:06;5.17;;;1.60;;
16524;SDS011;8375;33.594;-117.718;2022-12-07T00:56:34;3.57;;;1.07;;
16524;SDS011;8375;33.594;-117.718;2022-12-07T00:59:03;6.77;;;1.60;;
16524;SDS011;8375;33.594;-117.718;2022-12-07T01:01:34;6.03;;;1.20;;
16524;SDS011;8375;33.594;-117.718;2022-12-07T01:04:04;4.47;;;1.00;;
16524;SDS011;8375;33.594;-117.718;2022-12-07T01:06:33;5.93;;;1.40;;
16524;SDS011;8375;33.594;-117.718;2022-12-07T01:09:02;4.70;;;1.50;;
16524;SDS011;8375;33.594;-117.718;2022-12-07T01:11:32;6.33;;;1.43;;
16524;SDS011;8375;33.594;-117.718;2022-12-07T01:14:01;5.53;;;1.30;;
16524;SDS011;8375;33.594;-117.718;2022-12-07T01:16:30;8.57;;;1.80;;
16524;SDS011;8375;33.594;-117.718;2022-12-07T01:19:02;6.83;;;2.30;;
16524;SDS011;8375;33.594;-117.718;2022-12-07T01:21:31;7.57;;;1.93;;
16524;SDS011;8375;33.594;-117.718;2022-12-07T01:24:03;7.30;;;2.13;;
16524;SDS011;8375;33.594;-117.718;2022-12-07T01:26:32;7.07;;;1.50;;
16524;SDS011;8375;33.594;-117.718;2022-12-07T01:29:01;7.10;;;1.43;;
16524;SDS011;8375;33.594;-117.718;2022-12-07T01:31:30;6.10;;;1.17;;
16524;SDS011;8375;33.594;-117.718;2022-12-07T01:33:59;5.43;;;1.50;;
16524;SDS011;8375;33.594;-117.718;2022-12-07T01:36:31;5.67;;;1.90;;
16524;SDS011;8375;33.594;-117.718;2022-12-07T01:39:02;7.90;;;2.17;;
16524;SDS011;8375;33.594;-117.718;2022-12-07T01:41:34;5.77;;;1.50;;
16524;SDS011;8375;33.594;-117.718;2022-12-07T01:44:12;5.80;;;1.50;;
16524;SDS011;8375;33.594;-117.718;2022-12-07T01:46:44;6.90;;;1.40;;
16524;SDS011;8375;33.594;-117.718;2022-12-07T01:49:16;6.20;;;1.47;;
16524;SDS011;8375;33.594;-117.718;2022-12-07T01:52:00;4.73;;;1.40;;
16524;SDS011;8375;33.594;-117.718;2022-12-07T01:54:35;4.87;;;1.33;;
16524;SDS011;8375;33.594;-117.718;2022-12-07T01:57:04;5.40;;;1.73;;
16524;SDS011;8375;33.594;-117.718;2022-12-07T01:59:36;6.27;;;1.67;;
16524;SDS011;8375;33.594;-117.718;2022-12-07T02:02:05;5.67;;;1.50;;
16524;SDS011;8375;33.594;-117.718;2022-12-07T02:04:45;3.57;;;1.30;;
16524;SDS011;8375;33.594;-117.718;2022-12-07T02:07:16;5.17;;;1.60;;
16524;SDS011;8375;33.594;-117.718;2022-12-07T02:09:45;6.63;;;1.50;;
16524;SDS011;8375;33.594;-117.718;2022-12-07T02:12:17;9.10;;;1.20;;
16524;SDS011;8375;33.594;-117.718;2022-12-07T02:14:46;8.33;;;1.53;;
16524;SDS011;8375;33.594;-117.718;2022-12-07T02:17:17;5.63;;;1.50;;
16524;SDS011;8375;33.594;-117.718;2022-12-07T02:20:14;4.77;;;1.43;;
16524;SDS011;8375;33.594;-117.718;2022-12-07T02:25:56;7.23;;;1.83;;
16524;SDS011;8375;33.594;-117.718;2022-12-07T02:28:35;8.07;;;2.40;;
16524;SDS011;8375;33.594;-117.718;2022-12-07T02:31:08;3.63;;;1.90;;
16524;SDS011;8375;33.594;-117.718;2022-12-07T02:33:42;3.97;;;1.70;;
16524;SDS011;8375;33.594;-117.718;2022-12-07T02:36:16;4.37;;;1.53;;
16524;SDS011;8375;33.594;-117.718;2022-12-07T02:38:51;9.13;;;2.30;;
16524;SDS011;8375;33.594;-117.718;2022-12-07T02:41:26;5.80;;;1.63;;
16524;SDS011;8375;33.594;-117.718;2022-12-07T02:43:59;4.87;;;1.70;;
16524;SDS011;8375;33.594;-117.718;2022-12-07T02:46:32;6.10;;;1.80;;
16524;SDS011;8375;33.594;-117.718;2022-12-07T02:49:04;5.17;;;1.43;;
16524;SDS011;8375;33.594;-117.718;2022-12-07T02:51:38;5.67;;;1.90;;
16524;SDS011;8375;33.594;-117.718;2022-12-07T02:54:09;7.30;;;1.93;;
16524;SDS011;8375;33.594;-117.718;2022-12-07T02:56:42;7.93;;;1.60;;
16524;SDS011;8375;33.594;-117.718;2022-12-07T02:59:17;4.30;;;1.57;;
16524;SDS011;8375;33.594;-117.718;2022-12-07T03:02:01;5.17;;;1.67;;
16524;SDS011;8375;33.594;-117.718;2022-12-07T03:04:43;6.27;;;1.80;;
16524;SDS011;8375;33.594;-117.718;2022-12-07T03:07:24;4.77;;;1.67;;
16524;SDS011;8375;33.594;-117.718;2022-12-07T03:10:02;5.43;;;2.10;;
16524;SDS011;8375;33.594;-117.718;2022-12-07T03:12:42;8.20;;;2.27;;
16524;SDS011;8375;33.594;-117.718;2022-12-07T03:15:14;7.07;;;2.23;;
16524;SDS011;8375;33.594;-117.718;2022-12-07T03:17:51;6.90;;;2.27;;
16524;SDS011;8375;33.594;-117.718;2022-12-07T03:20:24;5.57;;;2.27;;
16524;SDS011;8375;33.594;-117.718;2022-12-07T03:22:55;7.57;;;2.03;;
16524;SDS011;8375;33.594;-117.718;2022-12-07T03:25:26;5.63;;;1.93;;
16524;SDS011;8375;33.594;-117.718;2022-12-07T03:27:57;5.77;;;2.03;;
16524;SDS011;8375;33.594;-117.718;2022-12-07T03:30:30;4.43;;;2.07;;
16524;SDS011;8375;33.594;-117.718;2022-12-07T03:33:06;5.93;;;2.37;;
16524;SDS011;8375;33.594;-117.718;2022-12-07T03:35:39;6.00;;;2.37;;
16524;SDS011;8375;33.594;-117.718;2022-12-07T03:38:12;6.87;;;2.73;;
16524;SDS011;8375;33.594;-117.718;2022-12-07T03:40:47;5.60;;;2.63;;
16524;SDS011;8375;33.594;-117.718;2022-12-07T03:43:20;5.20;;;2.63;;
16524;SDS011;8375;33.594;-117.718;2022-12-07T03:45:51;4.23;;;2.60;;
16524;SDS011;8375;33.594;-117.718;2022-12-07T03:48:32;6.37;;;3.00;;
16524;SDS011;8375;33.594;-117.718;2022-12-07T03:51:06;6.67;;;2.63;;
16524;SDS011;8375;33.594;-117.718;2022-12-07T03:53:42;7.27;;;2.80;;
16524;SDS011;8375;33.594;-117.718;2022-12-07T03:56:14;7.17;;;3.17;;
16524;SDS011;8375;33.594;-117.718;2022-12-07T03:58:43;5.83;;;2.90;;
16524;SDS011;8375;33.594;-117.718;2022-12-07T04:01:12;7.53;;;3.00;;
16524;SDS011;8375;33.594;-117.718;2022-12-07T04:03:43;5.83;;;2.80;;
16524;SDS011;8375;33.594;-117.718;2022-12-07T04:06:12;7.73;;;3.20;;
16524;SDS011;8375;33.594;-117.718;2022-12-07T04:08:41;5.43;;;2.53;;
16524;SDS011;8375;33.594;-117.718;2022-12-07T04:11:10;5.83;;;2.60;;
16524;SDS011;8375;33.594;-117.718;2022-12-07T04:13:38;8.47;;;2.40;;
16524;SDS011;8375;33.594;-117.718;2022-12-07T04:16:24;14.77;;;3.17;;
16524;SDS011;8375;33.594;-117.718;2022-12-07T04:18:55;9.83;;;2.73;;
16524;SDS011;8375;33.594;-117.718;2022-12-07T04:21:24;8.03;;;2.67;;
16524;SDS011;8375;33.594;-117.718;2022-12-07T04:23:53;6.33;;;2.80;;
16524;SDS011;8375;33.594;-117.718;2022-12-07T04:26:21;7.90;;;3.00;;
16524;SDS011;8375;33.594;-117.718;2022-12-07T04:28:50;11.10;;;3.07;;
16524;SDS011;8375;33.594;-117.718;2022-12-07T04:31:19;7.37;;;2.70;;
16524;SDS011;8375;33.594;-117.718;2022-12-07T04:33:47;5.67;;;2.80;;
16524;SDS011;8375;33.594;-117.718;2022-12-07T04:36:18;7.80;;;3.47;;
16524;SDS011;8375;33.594;-117.718;2022-12-07T04:38:47;8.17;;;2.77;;
16524;SDS011;8375;33.594;-117.718;2022-12-07T04:41:16;8.63;;;3.27;;
16524;SDS011;8375;33.594;-117.718;2022-12-07T04:43:53;9.03;;;3.10;;
16524;SDS011;8375;33.594;-117.718;2022-12-07T04:46:22;6.03;;;3.10;;
16524;SDS011;8375;33.594;-117.718;2022-12-07T04:48:51;8.70;;;3.03;;
16524;SDS011;8375;33.594;-117.718;2022-12-07T04:51:23;5.73;;;3.17;;
16524;SDS011;8375;33.594;-117.718;2022-12-07T04:53:54;5.77;;;2.70;;
16524;SDS011;8375;33.594;-117.718;2022-12-07T04:56:23;5.37;;;3.07;;
16524;SDS011;8375;33.594;-117.718;2022-12-07T04:58:53;7.93;;;2.80;;
16524;SDS011;8375;33.594;-117.718;2022-12-07T05:01:22;8.03;;;2.63;;
16524;SDS011;8375;33.594;-117.718;2022-12-07T05:03:51;4.87;;;3.00;;
16524;SDS011;8375;33.594;-117.718;2022-12-07T05:06:22;7.80;;;3.30;;
16524;SDS011;8375;33.594;-117.718;2022-12-07T05:08:51;9.50;;;3.17;;
16524;SDS011;8375;33.594;-117.718;2022-12-07T05:11:20;5.53;;;2.60;;
16524;SDS011;8375;33.594;-117.718;2022-12-07T05:14:06;5.60;;;2.83;;
16524;SDS011;8375;33.594;-117.718;2022-12-07T05:16:36;5.90;;;3.10;;
16524;SDS011;8375;33.594;-117.718;2022-12-07T05:19:06;7.70;;;2.80;;
16524;SDS011;8375;33.594;-117.718;2022-12-07T05:21:39;7.67;;;3.43;;
16524;SDS011;8375;33.594;-117.718;2022-12-07T05:24:08;5.33;;;2.80;;
16524;SDS011;8375;33.594;-117.718;2022-12-07T05:26:41;5.57;;;2.73;;
16524;SDS011;8375;33.594;-117.718;2022-12-07T05:29:13;5.43;;;2.60;;
16524;SDS011;8375;33.594;-117.718;2022-12-07T05:31:43;6.57;;;2.70;;
16524;SDS011;8375;33.594;-117.718;2022-12-07T05:34:13;6.60;;;2.90;;
16524;SDS011;8375;33.594;-117.718;2022-12-07T05:36:46;7.10;;;2.63;;
16524;SDS011;8375;33.594;-117.718;2022-12-07T05:39:17;7.67;;;2.40;;
16524;SDS011;8375;33.594;-117.718;2022-12-07T05:42:01;5.83;;;2.23;;
16524;SDS011;8375;33.594;-117.718;2022-12-07T05:44:39;7.70;;;2.70;;
16524;SDS011;8375;33.594;-117.718;2022-12-07T05:47:10;7.93;;;3.03;;
16524;SDS011;8375;33.594;-117.718;2022-12-07T05:49:39;6.17;;;2.40;;
16524;SDS011;8375;33.594;-117.718;2022-12-07T05:52:09;6.80;;;3.30;;
16524;SDS011;8375;33.594;-117.718;2022-12-07T05:54:38;7.10;;;2.47;;
16524;SDS011;8375;33.594;-117.718;2022-12-07T05:57:07;5.60;;;2.40;;
16524;SDS011;8375;33.594;-117.718;2022-12-07T05:59:36;5.23;;;2.63;;
16524;SDS011;8375;33.594;-117.718;2022-12-07T06:02:05;10.60;;;3.47;;
16524;SDS011;8375;33.594;-117.718;2022-12-07T06:04:36;5.00;;;3.57;;
16524;SDS011;8375;33.594;-117.718;2022-12-07T06:07:06;9.40;;;3.00;;
16524;SDS011;8375;33.594;-117.718;2022-12-07T06:09:39;6.87;;;3.20;;
16524;SDS011;8375;33.594;-117.718;2022-12-07T06:12:12;7.47;;;4.10;;
16524;SDS011;8375;33.594;-117.718;2022-12-07T06:14:58;7.67;;;5.17;;
16524;SDS011;8375;33.594;-117.718;2022-12-07T06:17:27;8.53;;;4.93;;
16524;SDS011;8375;33.594;-117.718;2022-12-07T06:19:56;7.53;;;5.33;;
16524;SDS011;8375;33.594;-117.718;2022-12-07T06:22:27;10.13;;;5.20;;
16524;SDS011;8375;33.594;-117.718;2022-12-07T06:24:56;11.43;;;4.77;;
16524;SDS011;8375;33.594;-117.718;2022-12-07T06:27:27;7.70;;;4.03;;
16524;SDS011;8375;33.594;-117.718;2022-12-07T06:29:58;10.30;;;4.43;;
16524;SDS011;8375;33.594;-117.718;2022-12-07T06:32:39;10.93;;;4.53;;
16524;SDS011;8375;33.594;-117.718;2022-12-07T06:35:12;5.63;;;3.73;;
16524;SDS011;8375;33.594;-117.718;2022-12-07T06:37:43;9.77;;;3.87;;
16524;SDS011;8375;33.594;-117.718;2022-12-07T06:40:12;7.40;;;4.03;;
16524;SDS011;8375;33.594;-117.718;2022-12-07T06:42:41;6.13;;;3.57;;
16524;SDS011;8375;33.594;-117.718;2022-12-07T06:45:16;7.17;;;3.97;;
16524;SDS011;8375;33.594;-117.718;2022-12-07T06:47:44;8.10;;;4.30;;
16524;SDS011;8375;33.594;-117.718;2022-12-07T06:50:15;8.47;;;4.17;;
16524;SDS011;8375;33.594;-117.718;2022-12-07T06:52:46;10.83;;;3.73;;
16524;SDS011;8375;33.594;-117.718;2022-12-07T06:55:18;7.70;;;3.93;;
16524;SDS011;8375;33.594;-117.718;2022-12-07T06:57:47;7.20;;;3.40;;
16524;SDS011;8375;33.594;-117.718;2022-12-07T07:00:16;6.27;;;3.57;;
16524;SDS011;8375;33.594;-117.718;2022-12-07T07:02:45;7.40;;;3.80;;
16524;SDS011;8375;33.594;-117.718;2022-12-07T07:05:13;7.87;;;3.80;;
16524;SDS011;8375;33.594;-117.718;2022-12-07T07:07:42;10.07;;;4.37;;
16524;SDS011;8375;33.594;-117.718;2022-12-07T07:10:13;9.27;;;4.20;;
16524;SDS011;8375;33.594;-117.718;2022-12-07T07:12:42;8.07;;;4.43;;
16524;SDS011;8375;33.594;-117.718;2022-12-07T07:15:11;8.17;;;4.50;;
16524;SDS011;8375;33.594;-117.718;2022-12-07T07:17:41;9.17;;;4.43;;
16524;SDS011;8375;33.594;-117.718;2022-12-07T07:20:14;10.20;;;4.53;;
16524;SDS011;8375;33.594;-117.718;2022-12-07T07:22:43;7.57;;;3.87;;
16524;SDS011;8375;33.594;-117.718;2022-12-07T07:25:13;7.73;;;4.53;;
16524;SDS011;8375;33.594;-117.718;2022-12-07T07:27:42;10.20;;;4.80;;
16524;SDS011;8375;33.594;-117.718;2022-12-07T07:30:11;9.13;;;5.07;;
16524;SDS011;8375;33.594;-117.718;2022-12-07T07:32:41;9.30;;;4.97;;
16524;SDS011;8375;33.594;-117.718;2022-12-07T07:35:11;11.83;;;5.37;;
16524;SDS011;8375;33.594;-117.718;2022-12-07T07:37:42;8.00;;;5.13;;
16524;SDS011;8375;33.594;-117.718;2022-12-07T07:40:11;7.20;;;4.73;;
16524;SDS011;8375;33.594;-117.718;2022-12-07T07:42:41;10.37;;;4.60;;
16524;SDS011;8375;33.594;-117.718;2022-12-07T07:45:10;5.87;;;5.00;;
16524;SDS011;8375;33.594;-117.718;2022-12-07T07:47:39;13.90;;;5.43;;
16524;SDS011;8375;33.594;-117.718;2022-12-07T07:50:08;7.57;;;4.87;;
16524;SDS011;8375;33.594;-117.718;2022-12-07T07:52:37;10.93;;;5.50;;
16524;SDS011;8375;33.594;-117.718;2022-12-07T07:55:05;8.77;;;4.60;;
16524;SDS011;8375;33.594;-117.718;2022-12-07T07:57:36;11.37;;;5.00;;
16524;SDS011;8375;33.594;-117.718;2022-12-07T08:00:06;9.67;;;5.53;;
16524;SDS011;8375;33.594;-117.718;2022-12-07T08:02:39;6.47;;;4.37;;
16524;SDS011;8375;33.594;-117.718;2022-12-07T08:05:08;9.90;;;4.57;;
16524;SDS011;8375;33.594;-117.718;2022-12-07T08:07:37;9.17;;;4.63;;
16524;SDS011;8375;33.594;-117.718;2022-12-07T08:10:07;9.50;;;5.00;;
16524;SDS011;8375;33.594;-117.718;2022-12-07T08:12:40;9.23;;;4.87;;
16524;SDS011;8375;33.594;-117.718;2022-12-07T08:15:24;6.10;;;4.30;;
16524;SDS011;8375;33.594;-117.718;2022-12-07T08:17:53;8.00;;;4.87;;
16524;SDS011;8375;33.594;-117.718;2022-12-07T08:20:22;8.80;;;4.90;;
16524;SDS011;8375;33.594;-117.718;2022-12-07T08:22:51;8.50;;;5.00;;
16524;SDS011;8375;33.594;-117.718;2022-12-07T08:25:19;8.53;;;5.23;;
16524;SDS011;8375;33.594;-117.718;2022-12-07T08:27:51;10.73;;;6.20;;
16524;SDS011;8375;33.594;-117.718;2022-12-07T08:30:20;16.83;;;4.90;;
16524;SDS011;8375;33.594;-117.718;2022-12-07T08:32:49;9.47;;;6.23;;
16524;SDS011;8375;33.594;-117.718;2022-12-07T08:35:19;9.73;;;6.73;;
16524;SDS011;8375;33.594;-117.718;2022-12-07T08:37:48;9.53;;;6.20;;
16524;SDS011;8375;33.594;-117.718;2022-12-07T08:40:16;9.93;;;5.93;;
16524;SDS011;8375;33.594;-117.718;2022-12-07T08:42:50;10.93;;;6.27;;
16524;SDS011;8375;33.594;-117.718;2022-12-07T08:45:19;6.40;;;5.00;;
16524;SDS011;8375;33.594;-117.718;2022-12-07T08:47:50;8.73;;;4.73;;
16524;SDS011;8375;33.594;-117.718;2022-12-07T08:50:23;8.93;;;5.00;;
16524;SDS011;8375;33.594;-117.718;2022-12-07T08:52:58;7.57;;;4.73;;
16524;SDS011;8375;33.594;-117.718;2022-12-07T08:55:27;11.00;;;4.73;;
16524;SDS011;8375;33.594;-117.718;2022-12-07T08:57:58;8.33;;;4.90;;
16524;SDS011;8375;33.594;-117.718;2022-12-07T09:00:28;9.30;;;5.30;;
16524;SDS011;8375;33.594;-117.718;2022-12-07T09:02:56;8.27;;;5.00;;
16524;SDS011;8375;33.594;-117.718;2022-12-07T09:05:25;8.93;;;4.77;;
16524;SDS011;8375;33.594;-117.718;2022-12-07T09:07:54;9.63;;;4.87;;
16524;SDS011;8375;33.594;-117.718;2022-12-07T09:10:27;9.40;;;4.47;;
16524;SDS011;8375;33.594;-117.718;2022-12-07T09:12:58;7.33;;;4.07;;
16524;SDS011;8375;33.594;-117.718;2022-12-07T09:15:27;8.13;;;4.03;;
16524;SDS011;8375;33.594;-117.718;2022-12-07T09:17:55;7.00;;;4.30;;
16524;SDS011;8375;33.594;-117.718;2022-12-07T09:20:24;7.37;;;4.23;;
16524;SDS011;8375;33.594;-117.718;2022-12-07T09:22:53;10.87;;;4.70;;
16524;SDS011;8375;33.594;-117.718;2022-12-07T09:25:21;10.33;;;4.53;;
16524;SDS011;8375;33.594;-117.718;2022-12-07T09:27:55;8.40;;;4.50;;
16524;SDS011;8375;33.594;-117.718;2022-12-07T09:30:26;10.80;;;4.57;;
16524;SDS011;8375;33.594;-117.718;2022-12-07T09:32:56;6.37;;;4.17;;
16524;SDS011;8375;33.594;-117.718;2022-12-07T09:35:24;5.83;;;4.10;;
16524;SDS011;8375;33.594;-117.718;2022-12-07T09:37:53;9.93;;;4.73;;
16524;SDS011;8375;33.594;-117.718;2022-12-07T09:40:22;7.87;;;4.40;;
16524;SDS011;8375;33.594;-117.718;2022-12-07T09:42:52;9.03;;;4.70;;
16524;SDS011;8375;33.594;-117.718;2022-12-07T09:45:22;8.97;;;4.03;;
16524;SDS011;8375;33.594;-117.718;2022-12-07T09:47:55;11.47;;;4.63;;
16524;SDS011;8375;33.594;-117.718;2022-12-07T09:50:26;7.60;;;4.57;;
16524;SDS011;8375;33.594;-117.718;2022-12-07T09:52:58;7.83;;;4.70;;
16524;SDS011;8375;33.594;-117.718;2022-12-07T09:55:35;8.80;;;4.10;;
16524;SDS011;8375;33.594;-117.718;2022-12-07T09:58:06;6.50;;;4.37;;
16524;SDS011;8375;33.594;-117.718;2022-12-07T10:00:39;8.83;;;4.33;;
16524;SDS011;8375;33.594;-117.718;2022-12-07T10:03:10;7.63;;;4.70;;
16524;SDS011;8375;33.594;-117.718;2022-12-07T10:05:43;7.93;;;4.20;;
16524;SDS011;8375;33.594;-117.718;2022-12-07T10:08:14;7.43;;;4.57;;
16524;SDS011;8375;33.594;-117.718;2022-12-07T10:10:44;8.53;;;3.77;;
16524;SDS011;8375;33.594;-117.718;2022-12-07T10:13:19;8.40;;;3.87;;
16524;SDS011;8375;33.594;-117.718;2022-12-07T10:15:50;9.57;;;4.33;;
16524;SDS011;8375;33.594;-117.718;2022-12-07T10:18:33;7.97;;;4.43;;
16524;SDS011;8375;33.594;-117.718;2022-12-07T10:21:05;9.03;;;4.70;;
16524;SDS011;8375;33.594;-117.718;2022-12-07T10:23:39;7.47;;;4.00;;
16524;SDS011;8375;33.594;-117.718;2022-12-07T10:26:26;8.73;;;4.20;;
16524;SDS011;8375;33.594;-117.718;2022-12-07T10:28:59;6.47;;;4.33;;
16524;SDS011;8375;33.594;-117.718;2022-12-07T10:31:29;7.50;;;4.50;;
16524;SDS011;8375;33.594;-117.718;2022-12-07T10:34:00;8.03;;;4.20;;
16524;SDS011;8375;33.594;-117.718;2022-12-07T10:36:34;6.07;;;4.10;;
16524;SDS011;8375;33.594;-117.718;2022-12-07T10:39:10;5.47;;;3.67;;
16524;SDS011;8375;33.594;-117.718;2022-12-07T10:41:52;9.77;;;4.10;;
16524;SDS011;8375;33.594;-117.718;2022-12-07T10:44:23;5.50;;;3.77;;
16524;SDS011;8375;33.594;-117.718;2022-12-07T10:46:58;6.47;;;3.70;;
16524;SDS011;8375;33.594;-117.718;2022-12-07T10:49:46;9.87;;;3.70;;
16524;SDS011;8375;33.594;-117.718;2022-12-07T10:52:36;6.60;;;3.37;;
16524;SDS011;8375;33.594;-117.718;2022-12-07T10:55:21;4.83;;;3.60;;
16524;SDS011;8375;33.594;-117.718;2022-12-07T10:58:01;4.23;;;3.40;;
16524;SDS011;8375;33.594;-117.718;2022-12-07T11:00:50;6.87;;;3.60;;
16524;SDS011;8375;33.594;-117.718;2022-12-07T11:03:30;6.20;;;3.07;;
16524;SDS011;8375;33.594;-117.718;2022-12-07T11:06:13;5.37;;;3.50;;
16524;SDS011;8375;33.594;-117.718;2022-12-07T11:08:55;9.30;;;3.30;;
16524;SDS011;8375;33.594;-117.718;2022-12-07T11:11:32;6.03;;;4.20;;
16524;SDS011;8375;33.594;-117.718;2022-12-07T11:14:06;6.17;;;3.43;;
16524;SDS011;8375;33.594;-117.718;2022-12-07T11:16:49;6.33;;;3.30;;
16524;SDS011;8375;33.594;-117.718;2022-12-07T11:19:30;4.90;;;3.77;;
16524;SDS011;8375;33.594;-117.718;2022-12-07T11:22:22;7.30;;;3.30;;
16524;SDS011;8375;33.594;-117.718;2022-12-07T11:24:57;10.60;;;3.70;;
16524;SDS011;8375;33.594;-117.718;2022-12-07T11:27:43;6.43;;;3.10;;
16524;SDS011;8375;33.594;-117.718;2022-12-07T11:30:22;8.57;;;3.13;;
16524;SDS011;8375;33.594;-117.718;2022-12-07T11:32:58;6.77;;;3.50;;
16524;SDS011;8375;33.594;-117.718;2022-12-07T11:35:43;7.80;;;3.30;;
16524;SDS011;8375;33.594;-117.718;2022-12-07T11:38:24;8.43;;;3.63;;
16524;SDS011;8375;33.594;-117.718;2022-12-07T11:40:59;7.07;;;3.57;;
16524;SDS011;8375;33.594;-117.718;2022-12-07T11:43:49;8.43;;;3.60;;
16524;SDS011;8375;33.594;-117.718;2022-12-07T11:46:22;9.77;;;3.87;;
16524;SDS011;8375;33.594;-117.718;2022-12-07T11:48:55;6.80;;;3.60;;
16524;SDS011;8375;33.594;-117.718;2022-12-07T11:51:31;8.10;;;3.40;;
16524;SDS011;8375;33.594;-117.718;2022-12-07T11:54:05;6.73;;;3.83;;
16524;SDS011;8375;33.594;-117.718;2022-12-07T11:56:41;7.27;;;3.80;;
16524;SDS011;8375;33.594;-117.718;2022-12-07T11:59:12;8.43;;;3.70;;
16524;SDS011;8375;33.594;-117.718;2022-12-07T12:01:49;5.23;;;3.40;;
16524;SDS011;8375;33.594;-117.718;2022-12-07T12:04:27;7.37;;;3.63;;
16524;SDS011;8375;33.594;-117.718;2022-12-07T12:07:01;7.10;;;3.93;;
16524;SDS011;8375;33.594;-117.718;2022-12-07T12:09:35;6.03;;;3.60;;
16524;SDS011;8375;33.594;-117.718;2022-12-07T12:12:19;7.73;;;3.77;;
16524;SDS011;8375;33.594;-117.718;2022-12-07T12:15:11;6.43;;;3.70;;
16524;SDS011;8375;33.594;-117.718;2022-12-07T12:18:06;5.30;;;3.60;;
16524;SDS011;8375;33.594;-117.718;2022-12-07T12:20:52;6.10;;;3.30;;
16524;SDS011;8375;33.594;-117.718;2022-12-07T12:23:24;6.07;;;2.90;;
16524;SDS011;8375;33.594;-117.718;2022-12-07T12:25:59;7.80;;;3.27;;
16524;SDS011;8375;33.594;-117.718;2022-12-07T12:28:30;7.90;;;3.30;;
16524;SDS011;8375;33.594;-117.718;2022-12-07T12:31:07;11.03;;;3.57;;
16524;SDS011;8375;33.594;-117.718;2022-12-07T12:33:42;7.13;;;3.50;;
16524;SDS011;8375;33.594;-117.718;2022-12-07T12:36:21;4.37;;;3.33;;
16524;SDS011;8375;33.594;-117.718;2022-12-07T12:39:10;4.67;;;3.57;;
16524;SDS011;8375;33.594;-117.718;2022-12-07T12:47:52;7.00;;;3.67;;
16524;SDS011;8375;33.594;-117.718;2022-12-07T12:50:24;5.77;;;3.53;;
16524;SDS011;8375;33.594;-117.718;2022-12-07T12:53:01;7.20;;;3.77;;
16524;SDS011;8375;33.594;-117.718;2022-12-07T12:55:57;4.87;;;3.20;;
16524;SDS011;8375;33.594;-117.718;2022-12-07T12:58:46;7.00;;;3.20;;
16524;SDS011;8375;33.594;-117.718;2022-12-07T13:10:24;5.07;;;3.73;;
16524;SDS011;8375;33.594;-117.718;2022-12-07T13:13:02;5.30;;;3.70;;
16524;SDS011;8375;33.594;-117.718;2022-12-07T13:15:35;7.20;;;4.33;;
16524;SDS011;8375;33.594;-117.718;2022-12-07T13:20:53;8.93;;;4.57;;
16524;SDS011;8375;33.594;-117.718;2022-12-07T13:23:28;9.40;;;4.47;;
16524;SDS011;8375;33.594;-117.718;2022-12-07T13:26:09;10.60;;;4.27;;
16524;SDS011;8375;33.594;-117.718;2022-12-07T13:28:43;6.77;;;3.70;;
16524;SDS011;8375;33.594;-117.718;2022-12-07T13:31:25;7.50;;;4.30;;
16524;SDS011;8375;33.594;-117.718;2022-12-07T13:34:01;7.03;;;4.00;;
16524;SDS011;8375;33.594;-117.718;2022-12-07T13:36:32;4.97;;;3.63;;
16524;SDS011;8375;33.594;-117.718;2022-12-07T13:39:14;7.60;;;3.80;;
16524;SDS011;8375;33.594;-117.718;2022-12-07T13:41:49;6.27;;;4.07;;
16524;SDS011;8375;33.594;-117.718;2022-12-07T13:44:19;7.37;;;3.57;;
16524;SDS011;8375;33.594;-117.718;2022-12-07T13:46:54;7.23;;;3.77;;
16524;SDS011;8375;33.594;-117.718;2022-12-07T13:49:29;7.60;;;3.80;;
16524;SDS011;8375;33.594;-117.718;2022-12-07T13:52:15;6.00;;;3.90;;
16524;SDS011;8375;33.594;-117.718;2022-12-07T13:54:45;9.67;;;3.70;;
16524;SDS011;8375;33.594;-117.718;2022-12-07T13:57:15;7.00;;;3.80;;
16524;SDS011;8375;33.594;-117.718;2022-12-07T13:59:45;5.50;;;3.67;;
16524;SDS011;8375;33.594;-117.718;2022-12-07T14:02:21;7.07;;;4.03;;
16524;SDS011;8375;33.594;-117.718;2022-12-07T14:05:05;5.73;;;4.27;;
16524;SDS011;8375;33.594;-117.718;2022-12-07T14:07:35;5.43;;;3.60;;
16524;SDS011;8375;33.594;-117.718;2022-12-07T14:15:55;7.70;;;5.20;;
16524;SDS011;8375;33.594;-117.718;2022-12-07T14:18:27;8.53;;;5.63;;
16524;SDS011;8375;33.594;-117.718;2022-12-07T14:21:04;9.23;;;5.30;;
16524;SDS011;8375;33.594;-117.718;2022-12-07T14:23:34;6.83;;;4.83;;
16524;SDS011;8375;33.594;-117.718;2022-12-07T14:26:07;12.23;;;4.77;;
16524;SDS011;8375;33.594;-117.718;2022-12-07T14:28:38;9.50;;;4.90;;
16524;SDS011;8375;33.594;-117.718;2022-12-07T14:31:10;9.87;;;5.13;;
16524;SDS011;8375;33.594;-117.718;2022-12-07T14:33:41;9.83;;;5.67;;
16524;SDS011;8375;33.594;-117.718;2022-12-07T14:36:10;7.43;;;5.40;;
16524;SDS011;8375;33.594;-117.718;2022-12-07T14:38:39;11.83;;;5.37;;
16524;SDS011;8375;33.594;-117.718;2022-12-07T14:41:10;10.20;;;5.47;;
16524;SDS011;8375;33.594;-117.718;2022-12-07T14:44:00;8.40;;;5.20;;
16524;SDS011;8375;33.594;-117.718;2022-12-07T14:46:28;8.40;;;5.73;;
16524;SDS011;8375;33.594;-117.718;2022-12-07T14:48:59;7.60;;;5.63;;
16524;SDS011;8375;33.594;-117.718;2022-12-07T14:51:27;7.70;;;5.27;;
16524;SDS011;8375;33.594;-117.718;2022-12-07T14:53:56;9.77;;;5.33;;
16524;SDS011;8375;33.594;-117.718;2022-12-07T14:56:25;10.50;;;5.70;;
16524;SDS011;8375;33.594;-117.718;2022-12-07T14:58:54;10.30;;;5.50;;
16524;SDS011;8375;33.594;-117.718;2022-12-07T15:01:23;10.93;;;5.43;;
16524;SDS011;8375;33.594;-117.718;2022-12-07T15:03:51;8.30;;;5.67;;
16524;SDS011;8375;33.594;-117.718;2022-12-07T15:06:21;10.57;;;5.97;;
16524;SDS011;8375;33.594;-117.718;2022-12-07T15:08:50;10.20;;;6.37;;
16524;SDS011;8375;33.594;-117.718;2022-12-07T15:11:19;8.53;;;5.53;;
16524;SDS011;8375;33.594;-117.718;2022-12-07T15:13:47;9.10;;;6.07;;
16524;SDS011;8375;33.594;-117.718;2022-12-07T15:16:33;10.90;;;5.73;;
16524;SDS011;8375;33.594;-117.718;2022-12-07T15:19:02;6.97;;;5.30;;
16524;SDS011;8375;33.594;-117.718;2022-12-07T15:21:32;10.43;;;5.90;;